Аэропорт: Пулково. Санкт-Петербург

ICAO: ULLI

METAR:
2018/09/23 11:00
ULLI 231100Z 22007MPS 9999 FEW030CB 11/08 Q0999 R88/290050 NOSIG
METAR:
2018/09/23 09:51
TAF 
      AMD TAF 
      AMD ULLI 230948Z 2309/2409 20005G10MPS 9999 SCT011 BKN025 
      TEMPO 2309/2316 22008G14MPS 3100 -TSRA BKN011 BKN020CB 
      BECMG 2316/2318 22003G08MPS 
      TEMPO 2318/2409 24003MPS 3100 -SHRA BR BKN011 BKN017CB